sensor_id;sensor_type;location;lat;lon;timestamp;P1;durP1;ratioP1;P2;durP2;ratioP2
54171;SDS011;40076;52.354;4.970;2022-08-02T00:00:07;5.05;;;1.85;;
54171;SDS011;40076;52.354;4.970;2022-08-02T00:02:33;7.28;;;1.90;;
54171;SDS011;40076;52.354;4.970;2022-08-02T00:04:58;7.85;;;1.98;;
54171;SDS011;40076;52.354;4.970;2022-08-02T00:07:23;6.40;;;1.98;;
54171;SDS011;40076;52.354;4.970;2022-08-02T00:09:48;8.15;;;2.17;;
54171;SDS011;40076;52.354;4.970;2022-08-02T00:12:14;5.22;;;1.80;;
54171;SDS011;40076;52.354;4.970;2022-08-02T00:14:39;7.63;;;1.98;;
54171;SDS011;40076;52.354;4.970;2022-08-02T00:17:05;4.75;;;1.80;;
54171;SDS011;40076;52.354;4.970;2022-08-02T00:19:30;9.25;;;1.80;;
54171;SDS011;40076;52.354;4.970;2022-08-02T00:21:56;9.82;;;2.33;;
54171;SDS011;40076;52.354;4.970;2022-08-02T00:24:21;4.50;;;1.85;;
54171;SDS011;40076;52.354;4.970;2022-08-02T00:26:47;7.15;;;1.90;;
54171;SDS011;40076;52.354;4.970;2022-08-02T00:29:12;3.92;;;1.50;;
54171;SDS011;40076;52.354;4.970;2022-08-02T00:31:37;5.88;;;1.40;;
54171;SDS011;40076;52.354;4.970;2022-08-02T00:34:03;5.80;;;1.70;;
54171;SDS011;40076;52.354;4.970;2022-08-02T00:36:28;16.45;;;2.78;;
54171;SDS011;40076;52.354;4.970;2022-08-02T00:38:53;6.95;;;2.10;;
54171;SDS011;40076;52.354;4.970;2022-08-02T00:41:19;5.68;;;1.80;;
54171;SDS011;40076;52.354;4.970;2022-08-02T00:43:46;7.55;;;1.90;;
54171;SDS011;40076;52.354;4.970;2022-08-02T00:46:12;3.90;;;1.60;;
54171;SDS011;40076;52.354;4.970;2022-08-02T00:48:38;7.07;;;2.05;;
54171;SDS011;40076;52.354;4.970;2022-08-02T00:51:03;6.45;;;2.30;;
54171;SDS011;40076;52.354;4.970;2022-08-02T00:53:29;7.25;;;2.22;;
54171;SDS011;40076;52.354;4.970;2022-08-02T00:55:54;10.13;;;2.40;;
54171;SDS011;40076;52.354;4.970;2022-08-02T00:58:20;7.43;;;2.10;;
54171;SDS011;40076;52.354;4.970;2022-08-02T01:00:46;8.60;;;2.25;;
54171;SDS011;40076;52.354;4.970;2022-08-02T01:03:11;8.27;;;2.60;;
54171;SDS011;40076;52.354;4.970;2022-08-02T01:05:37;5.63;;;2.20;;
54171;SDS011;40076;52.354;4.970;2022-08-02T01:08:02;8.98;;;2.10;;
54171;SDS011;40076;52.354;4.970;2022-08-02T01:10:27;9.52;;;2.22;;
54171;SDS011;40076;52.354;4.970;2022-08-02T01:12:53;8.25;;;2.50;;
54171;SDS011;40076;52.354;4.970;2022-08-02T01:15:18;7.40;;;2.53;;
54171;SDS011;40076;52.354;4.970;2022-08-02T01:17:53;7.45;;;2.42;;
54171;SDS011;40076;52.354;4.970;2022-08-02T01:26:33;8.20;;;2.53;;
54171;SDS011;40076;52.354;4.970;2022-08-02T01:29:12;7.00;;;1.92;;
54171;SDS011;40076;52.354;4.970;2022-08-02T01:34:27;7.03;;;2.00;;
54171;SDS011;40076;52.354;4.970;2022-08-02T01:39:33;7.45;;;1.80;;
54171;SDS011;40076;52.354;4.970;2022-08-02T01:42:02;5.38;;;1.77;;
54171;SDS011;40076;52.354;4.970;2022-08-02T01:44:30;5.05;;;1.83;;
54171;SDS011;40076;52.354;4.970;2022-08-02T01:47:00;13.57;;;2.08;;
54171;SDS011;40076;52.354;4.970;2022-08-02T01:49:29;6.38;;;1.80;;
54171;SDS011;40076;52.354;4.970;2022-08-02T01:51:57;7.45;;;1.90;;
54171;SDS011;40076;52.354;4.970;2022-08-02T01:54:42;7.70;;;2.72;;
54171;SDS011;40076;52.354;4.970;2022-08-02T01:57:09;5.80;;;1.92;;
54171;SDS011;40076;52.354;4.970;2022-08-02T01:59:36;7.63;;;2.00;;
54171;SDS011;40076;52.354;4.970;2022-08-02T02:02:06;8.20;;;2.03;;
54171;SDS011;40076;52.354;4.970;2022-08-02T02:04:33;8.60;;;2.22;;
54171;SDS011;40076;52.354;4.970;2022-08-02T02:07:00;7.28;;;2.20;;
54171;SDS011;40076;52.354;4.970;2022-08-02T02:09:27;7.78;;;2.00;;
54171;SDS011;40076;52.354;4.970;2022-08-02T02:11:54;7.75;;;1.75;;
54171;SDS011;40076;52.354;4.970;2022-08-02T02:14:21;5.18;;;1.80;;
54171;SDS011;40076;52.354;4.970;2022-08-02T02:16:48;11.77;;;2.60;;
54171;SDS011;40076;52.354;4.970;2022-08-02T02:19:14;7.10;;;1.75;;
54171;SDS011;40076;52.354;4.970;2022-08-02T02:21:42;7.00;;;2.20;;
54171;SDS011;40076;52.354;4.970;2022-08-02T02:24:08;9.07;;;2.03;;
54171;SDS011;40076;52.354;4.970;2022-08-02T02:26:33;10.07;;;2.25;;
54171;SDS011;40076;52.354;4.970;2022-08-02T02:29:00;9.63;;;2.03;;
54171;SDS011;40076;52.354;4.970;2022-08-02T02:31:27;6.95;;;1.90;;
54171;SDS011;40076;52.354;4.970;2022-08-02T02:33:57;9.48;;;2.08;;
54171;SDS011;40076;52.354;4.970;2022-08-02T02:36:27;7.88;;;2.00;;
54171;SDS011;40076;52.354;4.970;2022-08-02T02:38:53;5.38;;;1.70;;
54171;SDS011;40076;52.354;4.970;2022-08-02T02:41:23;7.18;;;1.73;;
54171;SDS011;40076;52.354;4.970;2022-08-02T02:43:51;10.13;;;2.10;;
54171;SDS011;40076;52.354;4.970;2022-08-02T02:46:19;9.13;;;2.05;;
54171;SDS011;40076;52.354;4.970;2022-08-02T02:48:46;8.70;;;1.77;;
54171;SDS011;40076;52.354;4.970;2022-08-02T02:51:13;10.90;;;2.45;;
54171;SDS011;40076;52.354;4.970;2022-08-02T02:53:39;6.60;;;1.80;;
54171;SDS011;40076;52.354;4.970;2022-08-02T02:56:06;5.22;;;1.52;;
54171;SDS011;40076;52.354;4.970;2022-08-02T02:58:32;8.70;;;1.90;;
54171;SDS011;40076;52.354;4.970;2022-08-02T03:00:57;6.10;;;1.70;;
54171;SDS011;40076;52.354;4.970;2022-08-02T03:03:42;6.68;;;2.10;;
54171;SDS011;40076;52.354;4.970;2022-08-02T03:06:08;5.30;;;1.50;;
54171;SDS011;40076;52.354;4.970;2022-08-02T03:08:34;7.90;;;1.73;;
54171;SDS011;40076;52.354;4.970;2022-08-02T03:10:59;10.77;;;1.80;;
54171;SDS011;40076;52.354;4.970;2022-08-02T03:13:25;7.95;;;2.40;;
54171;SDS011;40076;52.354;4.970;2022-08-02T03:15:50;9.05;;;1.67;;
54171;SDS011;40076;52.354;4.970;2022-08-02T03:21:00;6.55;;;1.80;;
54171;SDS011;40076;52.354;4.970;2022-08-02T03:23:26;7.00;;;1.60;;
54171;SDS011;40076;52.354;4.970;2022-08-02T03:25:51;7.93;;;1.65;;
54171;SDS011;40076;52.354;4.970;2022-08-02T03:28:16;7.40;;;2.13;;
54171;SDS011;40076;52.354;4.970;2022-08-02T03:30:42;6.43;;;1.67;;
54171;SDS011;40076;52.354;4.970;2022-08-02T03:33:07;8.07;;;1.83;;
54171;SDS011;40076;52.354;4.970;2022-08-02T03:35:32;7.70;;;1.52;;
54171;SDS011;40076;52.354;4.970;2022-08-02T03:37:59;6.32;;;1.83;;
54171;SDS011;40076;52.354;4.970;2022-08-02T03:40:25;6.60;;;1.60;;
54171;SDS011;40076;52.354;4.970;2022-08-02T03:42:52;8.23;;;2.00;;
54171;SDS011;40076;52.354;4.970;2022-08-02T03:45:18;14.15;;;2.55;;
54171;SDS011;40076;52.354;4.970;2022-08-02T03:47:44;12.85;;;2.55;;
54171;SDS011;40076;52.354;4.970;2022-08-02T03:50:11;5.75;;;1.58;;
54171;SDS011;40076;52.354;4.970;2022-08-02T03:52:40;4.68;;;1.52;;
54171;SDS011;40076;52.354;4.970;2022-08-02T03:55:08;6.95;;;1.70;;
54171;SDS011;40076;52.354;4.970;2022-08-02T03:57:36;6.30;;;1.63;;
54171;SDS011;40076;52.354;4.970;2022-08-02T04:00:04;6.22;;;1.60;;
54171;SDS011;40076;52.354;4.970;2022-08-02T04:02:30;7.07;;;2.10;;
54171;SDS011;40076;52.354;4.970;2022-08-02T04:04:55;5.57;;;2.17;;
54171;SDS011;40076;52.354;4.970;2022-08-02T04:07:20;5.22;;;1.75;;
54171;SDS011;40076;52.354;4.970;2022-08-02T04:09:45;5.22;;;2.05;;
54171;SDS011;40076;52.354;4.970;2022-08-02T04:12:11;6.10;;;1.75;;
54171;SDS011;40076;52.354;4.970;2022-08-02T04:14:36;6.03;;;1.35;;
54171;SDS011;40076;52.354;4.970;2022-08-02T04:17:03;9.27;;;1.90;;
54171;SDS011;40076;52.354;4.970;2022-08-02T04:19:33;5.47;;;1.75;;
54171;SDS011;40076;52.354;4.970;2022-08-02T04:22:08;6.65;;;2.00;;
54171;SDS011;40076;52.354;4.970;2022-08-02T04:24:44;6.07;;;1.80;;
54171;SDS011;40076;52.354;4.970;2022-08-02T04:27:14;7.88;;;2.17;;
54171;SDS011;40076;52.354;4.970;2022-08-02T04:29:39;5.55;;;2.00;;
54171;SDS011;40076;52.354;4.970;2022-08-02T04:32:05;7.28;;;1.95;;
54171;SDS011;40076;52.354;4.970;2022-08-02T04:34:31;6.30;;;2.10;;
54171;SDS011;40076;52.354;4.970;2022-08-02T04:36:57;7.93;;;2.13;;
54171;SDS011;40076;52.354;4.970;2022-08-02T04:39:24;9.13;;;2.38;;
54171;SDS011;40076;52.354;4.970;2022-08-02T04:41:49;6.70;;;2.15;;
54171;SDS011;40076;52.354;4.970;2022-08-02T04:44:15;7.50;;;2.00;;
54171;SDS011;40076;52.354;4.970;2022-08-02T04:46:41;7.95;;;2.28;;
54171;SDS011;40076;52.354;4.970;2022-08-02T04:49:08;5.78;;;2.35;;
54171;SDS011;40076;52.354;4.970;2022-08-02T04:51:42;8.18;;;2.20;;
54171;SDS011;40076;52.354;4.970;2022-08-02T04:54:08;6.38;;;2.10;;
54171;SDS011;40076;52.354;4.970;2022-08-02T04:56:34;7.45;;;2.20;;
54171;SDS011;40076;52.354;4.970;2022-08-02T04:59:00;9.88;;;2.17;;
54171;SDS011;40076;52.354;4.970;2022-08-02T05:01:26;7.55;;;2.17;;
54171;SDS011;40076;52.354;4.970;2022-08-02T05:03:51;6.45;;;2.20;;
54171;SDS011;40076;52.354;4.970;2022-08-02T05:06:17;9.10;;;2.35;;
54171;SDS011;40076;52.354;4.970;2022-08-02T05:08:44;10.60;;;2.50;;
54171;SDS011;40076;52.354;4.970;2022-08-02T05:11:12;7.35;;;2.42;;
54171;SDS011;40076;52.354;4.970;2022-08-02T05:13:39;9.50;;;2.22;;
54171;SDS011;40076;52.354;4.970;2022-08-02T05:16:05;6.25;;;2.17;;
54171;SDS011;40076;52.354;4.970;2022-08-02T05:18:30;7.85;;;2.47;;
54171;SDS011;40076;52.354;4.970;2022-08-02T05:20:56;7.75;;;2.13;;
54171;SDS011;40076;52.354;4.970;2022-08-02T05:23:21;8.07;;;2.08;;
54171;SDS011;40076;52.354;4.970;2022-08-02T05:25:46;7.70;;;2.10;;
54171;SDS011;40076;52.354;4.970;2022-08-02T05:28:12;5.93;;;2.17;;
54171;SDS011;40076;52.354;4.970;2022-08-02T05:30:37;8.02;;;3.22;;
54171;SDS011;40076;52.354;4.970;2022-08-02T05:33:03;8.70;;;2.30;;
54171;SDS011;40076;52.354;4.970;2022-08-02T05:35:29;8.68;;;2.63;;
54171;SDS011;40076;52.354;4.970;2022-08-02T05:37:54;6.97;;;2.10;;
54171;SDS011;40076;52.354;4.970;2022-08-02T05:40:20;5.60;;;1.90;;
54171;SDS011;40076;52.354;4.970;2022-08-02T05:42:45;6.57;;;1.90;;
54171;SDS011;40076;52.354;4.970;2022-08-02T05:45:10;7.72;;;1.90;;
54171;SDS011;40076;52.354;4.970;2022-08-02T05:47:36;5.53;;;1.88;;
54171;SDS011;40076;52.354;4.970;2022-08-02T05:50:03;4.72;;;1.80;;
54171;SDS011;40076;52.354;4.970;2022-08-02T05:52:35;9.50;;;2.20;;
54171;SDS011;40076;52.354;4.970;2022-08-02T05:55:14;6.72;;;2.20;;
54171;SDS011;40076;52.354;4.970;2022-08-02T06:00:38;8.43;;;2.30;;
54171;SDS011;40076;52.354;4.970;2022-08-02T06:03:23;7.63;;;2.10;;
54171;SDS011;40076;52.354;4.970;2022-08-02T06:06:04;9.38;;;2.22;;
54171;SDS011;40076;52.354;4.970;2022-08-02T06:08:44;7.38;;;2.00;;
54171;SDS011;40076;52.354;4.970;2022-08-02T06:11:12;5.72;;;2.08;;
54171;SDS011;40076;52.354;4.970;2022-08-02T06:13:40;8.13;;;2.90;;
54171;SDS011;40076;52.354;4.970;2022-08-02T06:16:07;8.35;;;2.28;;
54171;SDS011;40076;52.354;4.970;2022-08-02T06:18:32;8.88;;;2.50;;
54171;SDS011;40076;52.354;4.970;2022-08-02T06:21:03;7.20;;;2.28;;
54171;SDS011;40076;52.354;4.970;2022-08-02T06:23:29;6.75;;;2.50;;
54171;SDS011;40076;52.354;4.970;2022-08-02T06:25:56;7.35;;;2.58;;
54171;SDS011;40076;52.354;4.970;2022-08-02T06:28:22;8.65;;;3.05;;
54171;SDS011;40076;52.354;4.970;2022-08-02T06:30:48;7.72;;;2.63;;
54171;SDS011;40076;52.354;4.970;2022-08-02T06:33:14;7.68;;;2.60;;
54171;SDS011;40076;52.354;4.970;2022-08-02T06:35:42;7.53;;;3.08;;
54171;SDS011;40076;52.354;4.970;2022-08-02T06:38:11;7.45;;;3.00;;
54171;SDS011;40076;52.354;4.970;2022-08-02T06:41:04;10.52;;;3.22;;
54171;SDS011;40076;52.354;4.970;2022-08-02T06:43:41;11.50;;;3.47;;
54171;SDS011;40076;52.354;4.970;2022-08-02T06:46:14;8.88;;;3.85;;
54171;SDS011;40076;52.354;4.970;2022-08-02T06:48:40;9.13;;;3.92;;
54171;SDS011;40076;52.354;4.970;2022-08-02T06:51:05;11.35;;;4.47;;
54171;SDS011;40076;52.354;4.970;2022-08-02T06:53:31;11.82;;;4.30;;
54171;SDS011;40076;52.354;4.970;2022-08-02T06:55:56;5.35;;;3.67;;
54171;SDS011;40076;52.354;4.970;2022-08-02T06:58:22;12.95;;;5.75;;
54171;SDS011;40076;52.354;4.970;2022-08-02T07:00:47;8.48;;;4.28;;
54171;SDS011;40076;52.354;4.970;2022-08-02T07:03:13;9.80;;;4.88;;
54171;SDS011;40076;52.354;4.970;2022-08-02T07:05:39;10.63;;;5.68;;
54171;SDS011;40076;52.354;4.970;2022-08-02T07:08:05;10.40;;;5.43;;
54171;SDS011;40076;52.354;4.970;2022-08-02T07:10:31;15.65;;;6.22;;
54171;SDS011;40076;52.354;4.970;2022-08-02T07:12:56;11.90;;;6.60;;
54171;SDS011;40076;52.354;4.970;2022-08-02T07:15:21;13.20;;;6.40;;
54171;SDS011;40076;52.354;4.970;2022-08-02T07:17:46;9.15;;;5.85;;
54171;SDS011;40076;52.354;4.970;2022-08-02T07:20:12;10.73;;;7.15;;
54171;SDS011;40076;52.354;4.970;2022-08-02T07:22:39;12.32;;;7.13;;
54171;SDS011;40076;52.354;4.970;2022-08-02T07:25:05;12.93;;;7.00;;
54171;SDS011;40076;52.354;4.970;2022-08-02T07:27:31;14.27;;;7.07;;
54171;SDS011;40076;52.354;4.970;2022-08-02T07:29:57;13.50;;;7.50;;
54171;SDS011;40076;52.354;4.970;2022-08-02T07:32:24;14.02;;;8.02;;
54171;SDS011;40076;52.354;4.970;2022-08-02T07:34:52;18.10;;;8.27;;
54171;SDS011;40076;52.354;4.970;2022-08-02T07:37:19;12.82;;;7.85;;
54171;SDS011;40076;52.354;4.970;2022-08-02T07:39:45;14.32;;;7.80;;
54171;SDS011;40076;52.354;4.970;2022-08-02T07:42:10;12.85;;;8.18;;
54171;SDS011;40076;52.354;4.970;2022-08-02T07:44:35;14.43;;;8.52;;
54171;SDS011;40076;52.354;4.970;2022-08-02T07:47:01;18.85;;;8.65;;
54171;SDS011;40076;52.354;4.970;2022-08-02T07:49:27;13.60;;;8.60;;
54171;SDS011;40076;52.354;4.970;2022-08-02T07:51:52;12.55;;;8.40;;
54171;SDS011;40076;52.354;4.970;2022-08-02T07:54:18;15.70;;;9.57;;
54171;SDS011;40076;52.354;4.970;2022-08-02T07:56:44;12.70;;;9.65;;
54171;SDS011;40076;52.354;4.970;2022-08-02T07:59:09;14.75;;;8.77;;
54171;SDS011;40076;52.354;4.970;2022-08-02T08:01:35;14.75;;;9.68;;
54171;SDS011;40076;52.354;4.970;2022-08-02T08:04:01;13.10;;;8.95;;
54171;SDS011;40076;52.354;4.970;2022-08-02T08:06:27;14.02;;;9.23;;
54171;SDS011;40076;52.354;4.970;2022-08-02T08:08:52;14.95;;;10.00;;
54171;SDS011;40076;52.354;4.970;2022-08-02T08:11:17;16.65;;;9.77;;
54171;SDS011;40076;52.354;4.970;2022-08-02T08:13:43;13.82;;;9.55;;
54171;SDS011;40076;52.354;4.970;2022-08-02T08:16:08;13.75;;;9.23;;
54171;SDS011;40076;52.354;4.970;2022-08-02T08:18:33;15.20;;;9.18;;
54171;SDS011;40076;52.354;4.970;2022-08-02T08:20:59;15.40;;;9.27;;
54171;SDS011;40076;52.354;4.970;2022-08-02T08:23:24;15.02;;;9.65;;
54171;SDS011;40076;52.354;4.970;2022-08-02T08:25:50;14.48;;;9.85;;
54171;SDS011;40076;52.354;4.970;2022-08-02T08:28:15;14.27;;;8.50;;
54171;SDS011;40076;52.354;4.970;2022-08-02T08:30:40;12.52;;;8.40;;
54171;SDS011;40076;52.354;4.970;2022-08-02T08:33:06;12.68;;;8.65;;
54171;SDS011;40076;52.354;4.970;2022-08-02T08:35:32;11.10;;;7.95;;
54171;SDS011;40076;52.354;4.970;2022-08-02T08:37:57;10.60;;;7.95;;
54171;SDS011;40076;52.354;4.970;2022-08-02T08:40:23;13.82;;;7.68;;
54171;SDS011;40076;52.354;4.970;2022-08-02T08:42:49;13.93;;;8.13;;
54171;SDS011;40076;52.354;4.970;2022-08-02T08:45:14;11.32;;;7.93;;
54171;SDS011;40076;52.354;4.970;2022-08-02T08:47:42;11.73;;;7.75;;
54171;SDS011;40076;52.354;4.970;2022-08-02T08:50:09;11.48;;;7.72;;
54171;SDS011;40076;52.354;4.970;2022-08-02T08:52:53;14.57;;;8.98;;
54171;SDS011;40076;52.354;4.970;2022-08-02T08:55:32;12.77;;;9.80;;
54171;SDS011;40076;52.354;4.970;2022-08-02T08:57:59;13.32;;;8.15;;
54171;SDS011;40076;52.354;4.970;2022-08-02T09:00:26;13.48;;;8.63;;
54171;SDS011;40076;52.354;4.970;2022-08-02T09:02:53;10.68;;;8.88;;
54171;SDS011;40076;52.354;4.970;2022-08-02T09:05:18;13.73;;;8.85;;
54171;SDS011;40076;52.354;4.970;2022-08-02T09:07:49;16.60;;;9.57;;
54171;SDS011;40076;52.354;4.970;2022-08-02T09:15:32;16.25;;;10.23;;
54171;SDS011;40076;52.354;4.970;2022-08-02T09:17:57;14.77;;;10.85;;
54171;SDS011;40076;52.354;4.970;2022-08-02T09:20:23;15.10;;;9.98;;
54171;SDS011;40076;52.354;4.970;2022-08-02T09:23:07;12.30;;;8.82;;
54171;SDS011;40076;52.354;4.970;2022-08-02T09:25:33;13.18;;;10.48;;
54171;SDS011;40076;52.354;4.970;2022-08-02T09:28:00;13.98;;;10.70;;
54171;SDS011;40076;52.354;4.970;2022-08-02T09:30:27;14.93;;;9.07;;
54171;SDS011;40076;52.354;4.970;2022-08-02T09:32:53;15.90;;;9.55;;
54171;SDS011;40076;52.354;4.970;2022-08-02T09:35:37;12.85;;;9.50;;
54171;SDS011;40076;52.354;4.970;2022-08-02T09:38:07;18.95;;;9.57;;
54171;SDS011;40076;52.354;4.970;2022-08-02T09:40:36;13.00;;;9.00;;
54171;SDS011;40076;52.354;4.970;2022-08-02T09:43:03;15.85;;;9.38;;
54171;SDS011;40076;52.354;4.970;2022-08-02T09:45:32;13.05;;;10.48;;
54171;SDS011;40076;52.354;4.970;2022-08-02T09:48:00;14.43;;;10.10;;
54171;SDS011;40076;52.354;4.970;2022-08-02T09:50:32;14.77;;;11.02;;
54171;SDS011;40076;52.354;4.970;2022-08-02T09:52:59;14.05;;;10.43;;
54171;SDS011;40076;52.354;4.970;2022-08-02T09:55:27;13.23;;;10.43;;
54171;SDS011;40076;52.354;4.970;2022-08-02T09:57:52;15.23;;;10.13;;
54171;SDS011;40076;52.354;4.970;2022-08-02T10:00:18;15.70;;;10.63;;
54171;SDS011;40076;52.354;4.970;2022-08-02T10:05:29;15.13;;;10.23;;
54171;SDS011;40076;52.354;4.970;2022-08-02T10:07:55;12.82;;;10.18;;
54171;SDS011;40076;52.354;4.970;2022-08-02T10:10:21;11.32;;;8.95;;
54171;SDS011;40076;52.354;4.970;2022-08-02T10:12:47;11.23;;;8.52;;
54171;SDS011;40076;52.354;4.970;2022-08-02T10:15:13;14.43;;;8.50;;
54171;SDS011;40076;52.354;4.970;2022-08-02T10:17:40;11.85;;;8.32;;
54171;SDS011;40076;52.354;4.970;2022-08-02T10:20:07;14.23;;;7.80;;
54171;SDS011;40076;52.354;4.970;2022-08-02T10:22:33;10.38;;;7.10;;
54171;SDS011;40076;52.354;4.970;2022-08-02T10:25:00;10.65;;;6.35;;
54171;SDS011;40076;52.354;4.970;2022-08-02T10:27:27;11.15;;;7.05;;
54171;SDS011;40076;52.354;4.970;2022-08-02T10:29:54;12.30;;;7.50;;
54171;SDS011;40076;52.354;4.970;2022-08-02T10:32:24;9.80;;;7.03;;
54171;SDS011;40076;52.354;4.970;2022-08-02T10:35:02;10.98;;;6.60;;
54171;SDS011;40076;52.354;4.970;2022-08-02T10:37:30;9.13;;;5.35;;
54171;SDS011;40076;52.354;4.970;2022-08-02T10:40:00;9.20;;;6.47;;
54171;SDS011;40076;52.354;4.970;2022-08-02T10:42:41;10.15;;;5.90;;
54171;SDS011;40076;52.354;4.970;2022-08-02T10:45:09;7.60;;;5.15;;
54171;SDS011;40076;52.354;4.970;2022-08-02T10:47:35;10.18;;;5.03;;
54171;SDS011;40076;52.354;4.970;2022-08-02T10:50:00;7.53;;;4.35;;
54171;SDS011;40076;52.354;4.970;2022-08-02T10:52:27;7.47;;;4.45;;
54171;SDS011;40076;52.354;4.970;2022-08-02T10:57:28;9.20;;;3.72;;
54171;SDS011;40076;52.354;4.970;2022-08-02T11:00:11;7.63;;;3.80;;
54171;SDS011;40076;52.354;4.970;2022-08-02T11:02:49;6.97;;;3.80;;
54171;SDS011;40076;52.354;4.970;2022-08-02T11:05:16;7.25;;;4.35;;
54171;SDS011;40076;52.354;4.970;2022-08-02T11:07:46;7.90;;;3.33;;
54171;SDS011;40076;52.354;4.970;2022-08-02T11:15:27;7.93;;;3.92;;
54171;SDS011;40076;52.354;4.970;2022-08-02T11:17:54;8.75;;;4.65;;
54171;SDS011;40076;52.354;4.970;2022-08-02T11:20:21;6.43;;;3.60;;
54171;SDS011;40076;52.354;4.970;2022-08-02T11:22:48;9.15;;;4.80;;
54171;SDS011;40076;52.354;4.970;2022-08-02T11:27:56;6.70;;;4.22;;
54171;SDS011;40076;52.354;4.970;2022-08-02T11:30:23;7.32;;;4.18;;
54171;SDS011;40076;52.354;4.970;2022-08-02T11:32:50;5.35;;;3.10;;
54171;SDS011;40076;52.354;4.970;2022-08-02T11:35:19;7.28;;;3.80;;
54171;SDS011;40076;52.354;4.970;2022-08-02T11:37:46;8.90;;;4.28;;
54171;SDS011;40076;52.354;4.970;2022-08-02T11:40:12;13.45;;;4.60;;
54171;SDS011;40076;52.354;4.970;2022-08-02T11:42:40;7.88;;;3.90;;
54171;SDS011;40076;52.354;4.970;2022-08-02T11:45:11;8.32;;;4.07;;
54171;SDS011;40076;52.354;4.970;2022-08-02T11:50:11;7.15;;;3.72;;
54171;SDS011;40076;52.354;4.970;2022-08-02T11:52:37;7.38;;;4.65;;
54171;SDS011;40076;52.354;4.970;2022-08-02T11:55:03;11.07;;;4.00;;
54171;SDS011;40076;52.354;4.970;2022-08-02T11:57:30;9.85;;;4.28;;
54171;SDS011;40076;52.354;4.970;2022-08-02T11:59:56;9.55;;;4.30;;
54171;SDS011;40076;52.354;4.970;2022-08-02T12:02:25;7.93;;;3.28;;
54171;SDS011;40076;52.354;4.970;2022-08-02T12:04:57;8.43;;;3.78;;
54171;SDS011;40076;52.354;4.970;2022-08-02T12:07:35;10.35;;;4.72;;
54171;SDS011;40076;52.354;4.970;2022-08-02T12:12:32;8.27;;;4.30;;
54171;SDS011;40076;52.354;4.970;2022-08-02T12:14:58;7.95;;;4.30;;
54171;SDS011;40076;52.354;4.970;2022-08-02T12:17:24;6.28;;;3.60;;
54171;SDS011;40076;52.354;4.970;2022-08-02T12:20:09;8.32;;;4.10;;
54171;SDS011;40076;52.354;4.970;2022-08-02T12:22:35;5.78;;;3.72;;
54171;SDS011;40076;52.354;4.970;2022-08-02T12:25:13;9.23;;;3.63;;
54171;SDS011;40076;52.354;4.970;2022-08-02T12:27:41;8.38;;;3.58;;
54171;SDS011;40076;52.354;4.970;2022-08-02T12:30:08;8.05;;;3.63;;
54171;SDS011;40076;52.354;4.970;2022-08-02T12:32:39;6.97;;;3.65;;
54171;SDS011;40076;52.354;4.970;2022-08-02T12:35:12;6.07;;;3.72;;
54171;SDS011;40076;52.354;4.970;2022-08-02T12:37:40;6.60;;;3.60;;
54171;SDS011;40076;52.354;4.970;2022-08-02T12:45:22;8.45;;;3.33;;
54171;SDS011;40076;52.354;4.970;2022-08-02T12:47:51;8.48;;;3.72;;
54171;SDS011;40076;52.354;4.970;2022-08-02T12:50:19;10.45;;;2.85;;
54171;SDS011;40076;52.354;4.970;2022-08-02T12:52:50;10.25;;;3.42;;
54171;SDS011;40076;52.354;4.970;2022-08-02T12:55:27;7.28;;;2.85;;
54171;SDS011;40076;52.354;4.970;2022-08-02T12:57:53;5.75;;;2.97;;
54171;SDS011;40076;52.354;4.970;2022-08-02T13:00:27;4.28;;;2.35;;
54171;SDS011;40076;52.354;4.970;2022-08-02T13:02:55;5.68;;;2.70;;
54171;SDS011;40076;52.354;4.970;2022-08-02T13:05:21;5.80;;;2.63;;
54171;SDS011;40076;52.354;4.970;2022-08-02T13:07:46;5.97;;;2.38;;
54171;SDS011;40076;52.354;4.970;2022-08-02T13:10:11;5.13;;;2.10;;
54171;SDS011;40076;52.354;4.970;2022-08-02T13:12:37;5.68;;;2.15;;
54171;SDS011;40076;52.354;4.970;2022-08-02T13:15:04;5.60;;;2.30;;
54171;SDS011;40076;52.354;4.970;2022-08-02T13:17:30;5.35;;;2.00;;
54171;SDS011;40076;52.354;4.970;2022-08-02T13:19:55;5.65;;;2.20;;
54171;SDS011;40076;52.354;4.970;2022-08-02T13:22:21;4.43;;;1.83;;
54171;SDS011;40076;52.354;4.970;2022-08-02T13:24:46;7.82;;;2.10;;
54171;SDS011;40076;52.354;4.970;2022-08-02T13:27:13;2.97;;;1.70;;
54171;SDS011;40076;52.354;4.970;2022-08-02T13:29:38;4.27;;;1.80;;
54171;SDS011;40076;52.354;4.970;2022-08-02T13:32:04;4.13;;;1.83;;
54171;SDS011;40076;52.354;4.970;2022-08-02T13:34:29;4.93;;;1.70;;
54171;SDS011;40076;52.354;4.970;2022-08-02T13:36:55;5.13;;;1.90;;
54171;SDS011;40076;52.354;4.970;2022-08-02T13:39:20;6.88;;;1.92;;
54171;SDS011;40076;52.354;4.970;2022-08-02T13:41:45;4.77;;;1.87;;
54171;SDS011;40076;52.354;4.970;2022-08-02T13:44:10;3.47;;;1.60;;
54171;SDS011;40076;52.354;4.970;2022-08-02T13:46:36;6.07;;;1.70;;
54171;SDS011;40076;52.354;4.970;2022-08-02T13:49:03;7.63;;;1.90;;
54171;SDS011;40076;52.354;4.970;2022-08-02T13:51:29;7.45;;;2.03;;
54171;SDS011;40076;52.354;4.970;2022-08-02T13:53:54;4.65;;;1.70;;
54171;SDS011;40076;52.354;4.970;2022-08-02T13:56:20;5.80;;;1.67;;
54171;SDS011;40076;52.354;4.970;2022-08-02T13:58:45;5.45;;;1.73;;
54171;SDS011;40076;52.354;4.970;2022-08-02T14:01:10;6.63;;;2.28;;
54171;SDS011;40076;52.354;4.970;2022-08-02T14:03:35;4.80;;;1.90;;
54171;SDS011;40076;52.354;4.970;2022-08-02T14:06:01;8.55;;;2.20;;
54171;SDS011;40076;52.354;4.970;2022-08-02T14:08:26;5.05;;;2.10;;
54171;SDS011;40076;52.354;4.970;2022-08-02T14:10:52;11.98;;;2.25;;
54171;SDS011;40076;52.354;4.970;2022-08-02T14:13:17;6.22;;;2.00;;
54171;SDS011;40076;52.354;4.970;2022-08-02T14:15:43;7.20;;;2.08;;
54171;SDS011;40076;52.354;4.970;2022-08-02T14:18:09;5.05;;;1.88;;
54171;SDS011;40076;52.354;4.970;2022-08-02T14:20:35;6.88;;;2.08;;
54171;SDS011;40076;52.354;4.970;2022-08-02T14:23:00;8.32;;;2.10;;
54171;SDS011;40076;52.354;4.970;2022-08-02T14:25:25;7.93;;;2.42;;
54171;SDS011;40076;52.354;4.970;2022-08-02T14:27:50;9.80;;;2.20;;
54171;SDS011;40076;52.354;4.970;2022-08-02T14:30:16;8.30;;;2.00;;
54171;SDS011;40076;52.354;4.970;2022-08-02T14:32:41;9.95;;;2.78;;
54171;SDS011;40076;52.354;4.970;2022-08-02T14:35:07;8.55;;;2.67;;
54171;SDS011;40076;52.354;4.970;2022-08-02T14:37:32;7.05;;;2.80;;
54171;SDS011;40076;52.354;4.970;2022-08-02T14:39:58;15.60;;;2.78;;
54171;SDS011;40076;52.354;4.970;2022-08-02T14:42:23;10.45;;;2.65;;
54171;SDS011;40076;52.354;4.970;2022-08-02T14:44:49;17.15;;;3.55;;
54171;SDS011;40076;52.354;4.970;2022-08-02T14:47:14;10.88;;;2.70;;
54171;SDS011;40076;52.354;4.970;2022-08-02T14:49:39;11.15;;;2.22;;
54171;SDS011;40076;52.354;4.970;2022-08-02T14:52:05;10.27;;;3.00;;
54171;SDS011;40076;52.354;4.970;2022-08-02T14:54:30;15.52;;;2.40;;
54171;SDS011;40076;52.354;4.970;2022-08-02T14:56:57;10.43;;;2.63;;
54171;SDS011;40076;52.354;4.970;2022-08-02T14:59:23;7.25;;;2.25;;
54171;SDS011;40076;52.354;4.970;2022-08-02T15:01:49;9.20;;;2.63;;
54171;SDS011;40076;52.354;4.970;2022-08-02T15:04:14;11.80;;;2.20;;
54171;SDS011;40076;52.354;4.970;2022-08-02T15:06:39;6.82;;;2.47;;
54171;SDS011;40076;52.354;4.970;2022-08-02T15:09:05;10.85;;;2.33;;
54171;SDS011;40076;52.354;4.970;2022-08-02T15:11:30;11.85;;;2.50;;
54171;SDS011;40076;52.354;4.970;2022-08-02T15:13:56;5.78;;;2.20;;
54171;SDS011;40076;52.354;4.970;2022-08-02T15:16:23;8.20;;;2.25;;
54171;SDS011;40076;52.354;4.970;2022-08-02T15:18:49;10.32;;;2.25;;
54171;SDS011;40076;52.354;4.970;2022-08-02T15:21:14;6.27;;;2.10;;
54171;SDS011;40076;52.354;4.970;2022-08-02T15:23:39;9.95;;;2.63;;
54171;SDS011;40076;52.354;4.970;2022-08-02T15:26:05;10.55;;;2.58;;
54171;SDS011;40076;52.354;4.970;2022-08-02T15:28:30;10.27;;;2.20;;